Pagina principale
METAR-TAF:

METAR-TAF

Aeroporti :

Aeroporto Internazionale di Khartum

Khartum, Sudan

latitudine: 15-36N, longitudine: 032-33E, altezza: 382 m

Osservazione

Il bollettino è stato emesso 21 minuti fa, alle 04:30 UTC
Vento 9 kt da nord
Temperature 19°C
Umidità 24%
Pressione 1014 hPa
Visibilità 10 km o più
nessuna nube inferiore a 1500 m e nessun cumulonembo

METAR: HSSS 280430Z 36009KT CAVOK 19/M02 Q1014 NOSIG

Ora: 06:51 (04:51 UTC)

Previsione

Il bollettino è stato emesso 5 ore e 51 minuti fa, alle 23:00 UTC
Previsione valida dal 28 alle 00 UTC al 29 alle 06 UTC
Vento 10 kt da nord con raffiche fino a 20 kt
Visibilità 10 km o più
nessuna nube inferiore a 1500 m e nessun cumulonembo

TAF: HSSS 272300Z 2800/2906 35010G20KT CAVOK

Osservazioni e previsioni meteorologiche di più di 4000 aeroporti (messaggi METAR e TAF).

Le stazioni disponibili sono rappresentate dai dischi gialli e rossi sulla carta.

Puntare il mouse per vedere il nome della stazione.

Clicca sopra per visualizzare le osservazioni e previsioni meteorologiche.

Per cambiare la mappa : fare clic sui pulsanti verdi con una croce nera per ingrandire, il pulsante verde con un trattino per diminuire, o sulla freccia verde per le mappe adiacenti.


METAR-TAF: